createdAt,value
2022-08-03T00:00:54.759Z,0
2022-08-03T00:01:56.834Z,0
2022-08-03T00:02:58.829Z,0
2022-08-03T00:04:00.776Z,0
2022-08-03T00:05:03.017Z,0.18
2022-08-03T00:06:05.241Z,0.12
2022-08-03T00:07:06.808Z,0
2022-08-03T00:08:08.849Z,0
2022-08-03T00:09:10.800Z,0
2022-08-03T00:10:12.782Z,0
2022-08-03T00:11:14.824Z,0
2022-08-03T00:12:17.126Z,0
2022-08-03T00:13:19.459Z,0
2022-08-03T00:14:20.876Z,0
2022-08-03T00:15:22.823Z,0
2022-08-03T00:16:24.998Z,0
2022-08-03T00:17:26.802Z,0.18
2022-08-03T00:18:28.805Z,0
2022-08-03T00:19:30.845Z,0
2022-08-03T00:20:32.921Z,0
2022-08-03T00:21:34.802Z,0
2022-08-03T00:22:36.825Z,0
2022-08-03T00:23:51.071Z,0
2022-08-03T00:24:40.810Z,0
2022-08-03T00:25:42.856Z,0
2022-08-03T00:26:44.839Z,0
2022-08-03T00:27:47.094Z,0
2022-08-03T00:28:48.851Z,0
2022-08-03T00:29:57.492Z,0
2022-08-03T00:30:52.863Z,0
2022-08-03T00:31:59.660Z,0
2022-08-03T00:32:56.825Z,0
2022-08-03T00:34:00.352Z,0
2022-08-03T00:35:00.846Z,0
2022-08-03T00:36:02.837Z,0
2022-08-03T00:37:04.883Z,0
2022-08-03T00:38:06.862Z,0
2022-08-03T00:39:08.824Z,0
2022-08-03T00:40:10.877Z,0
2022-08-03T00:41:12.886Z,0
2022-08-03T00:42:15.073Z,0
2022-08-03T00:43:16.859Z,0
2022-08-03T00:44:18.849Z,0
2022-08-03T00:45:20.882Z,0
2022-08-03T00:46:22.911Z,0
2022-08-03T00:47:24.854Z,0
2022-08-03T00:48:29.849Z,0
2022-08-03T00:49:28.962Z,0
2022-08-03T00:50:30.893Z,0
2022-08-03T00:51:32.867Z,0
2022-08-03T00:52:34.861Z,0
2022-08-03T00:53:36.904Z,0
2022-08-03T00:54:38.864Z,0
2022-08-03T00:55:40.868Z,0
2022-08-03T00:56:59.356Z,0
2022-08-03T00:57:44.866Z,0
2022-08-03T00:58:46.901Z,0
2022-08-03T00:59:48.864Z,0
2022-08-03T01:00:50.920Z,0
2022-08-03T01:01:52.886Z,0
2022-08-03T01:02:55.126Z,0
2022-08-03T01:03:56.897Z,0
2022-08-03T01:04:58.884Z,0
2022-08-03T01:06:00.908Z,0
2022-08-03T01:07:02.889Z,0
2022-08-03T01:08:04.918Z,0
2022-08-03T01:09:06.882Z,0
2022-08-03T01:10:08.912Z,0
2022-08-03T01:11:10.917Z,0
2022-08-03T01:12:12.887Z,0
2022-08-03T01:13:59.273Z,0
2022-08-03T01:14:18.454Z,0
2022-08-03T01:15:19.336Z,0
2022-08-03T01:16:20.922Z,0
2022-08-03T01:17:22.909Z,0
2022-08-03T01:18:24.908Z,0
2022-08-03T01:19:28.337Z,0
2022-08-03T01:20:29.946Z,0
2022-08-03T01:21:31.910Z,0
2022-08-03T01:22:33.918Z,0
2022-08-03T01:23:35.920Z,0
2022-08-03T01:24:37.958Z,0
2022-08-03T01:25:39.936Z,0
2022-08-03T01:26:41.902Z,0
2022-08-03T01:27:43.926Z,0
2022-08-03T01:28:46.194Z,0.18
2022-08-03T01:29:47.971Z,0
2022-08-03T01:30:49.946Z,0
2022-08-03T01:32:52.093Z,0
2022-08-03T01:33:00.438Z,0
2022-08-03T01:33:55.941Z,0
2022-08-03T01:34:57.956Z,0
2022-08-03T01:35:59.979Z,0
2022-08-03T01:37:01.933Z,0
2022-08-03T01:38:03.937Z,0
2022-08-03T01:39:05.964Z,0
2022-08-03T01:40:07.958Z,0
2022-08-03T01:41:09.947Z,0
2022-08-03T01:42:12.540Z,0
2022-08-03T01:43:14.389Z,0
2022-08-03T01:44:27.121Z,0
2022-08-03T01:45:17.945Z,0
2022-08-03T01:46:19.971Z,0
2022-08-03T01:47:21.953Z,0
2022-08-03T01:48:23.946Z,0
2022-08-03T01:49:26.024Z,0
2022-08-03T01:50:27.985Z,0
2022-08-03T01:51:56.210Z,0
2022-08-03T01:52:31.980Z,0
2022-08-03T01:53:33.981Z,0
2022-08-03T01:54:35.971Z,0
2022-08-03T01:55:37.955Z,0
2022-08-03T01:56:39.957Z,0
2022-08-03T01:58:05.046Z,0
2022-08-03T01:58:43.990Z,0
2022-08-03T01:59:45.972Z,0
2022-08-03T02:00:48.004Z,0
2022-08-03T02:02:15.760Z,0
2022-08-03T02:02:52.079Z,0.18
2022-08-03T02:04:00.335Z,0.13
2022-08-03T02:04:56.029Z,0.1
2022-08-03T02:06:18.087Z,0
2022-08-03T02:07:02.989Z,0
2022-08-03T02:08:02.236Z,0
2022-08-03T02:09:03.971Z,0.27
2022-08-03T02:10:06.044Z,0.18
2022-08-03T02:11:07.976Z,0.16
2022-08-03T02:12:10.913Z,0.27
2022-08-03T02:13:13.014Z,0.29
2022-08-03T02:14:15.001Z,0.25
2022-08-03T02:15:17.034Z,0.21
2022-08-03T02:16:18.980Z,0.2
2022-08-03T02:17:38.888Z,0.24
2022-08-03T02:18:25.950Z,0.23
2022-08-03T02:19:30.360Z,0.24
2022-08-03T02:20:30.040Z,0
2022-08-03T02:21:56.214Z,0
2022-08-03T02:22:34.070Z,0
2022-08-03T02:23:36.023Z,0
2022-08-03T02:24:38.076Z,0
2022-08-03T02:25:40.029Z,0
2022-08-03T02:26:42.005Z,0
2022-08-03T02:27:44.221Z,0
2022-08-03T02:28:46.003Z,0
2022-08-03T02:29:48.020Z,0
2022-08-03T02:30:51.916Z,0
2022-08-03T02:31:52.011Z,0
2022-08-03T02:32:54.044Z,0
2022-08-03T02:33:56.024Z,0
2022-08-03T02:34:58.020Z,0
2022-08-03T02:36:00.073Z,0
2022-08-03T02:37:02.095Z,0
2022-08-03T02:38:04.242Z,0.18
2022-08-03T02:39:06.044Z,0.14
2022-08-03T02:40:08.069Z,0.08
2022-08-03T02:41:10.034Z,0
2022-08-03T02:42:12.782Z,0
2022-08-03T02:43:14.068Z,0
2022-08-03T02:44:16.032Z,0
2022-08-03T02:45:18.046Z,0
2022-08-03T02:46:20.080Z,0
2022-08-03T02:47:22.104Z,0
2022-08-03T02:48:24.063Z,0
2022-08-03T02:49:35.201Z,0
2022-08-03T02:50:33.076Z,0
2022-08-03T02:51:36.342Z,0
2022-08-03T02:52:38.056Z,0
2022-08-03T02:53:40.060Z,0.23
2022-08-03T02:54:42.214Z,0
2022-08-03T02:55:45.775Z,0
2022-08-03T02:56:46.074Z,0.33
2022-08-03T02:57:48.069Z,0.11
2022-08-03T02:58:50.064Z,0
2022-08-03T02:59:52.101Z,0
2022-08-03T03:00:54.283Z,0
2022-08-03T03:01:56.112Z,0.28
2022-08-03T03:02:58.074Z,0.21
2022-08-03T03:04:00.086Z,0.08
2022-08-03T03:05:51.184Z,0.23
2022-08-03T03:06:04.853Z,0.14
2022-08-03T03:07:06.094Z,0.25
2022-08-03T03:08:17.563Z,0.29
2022-08-03T03:09:10.080Z,0.28
2022-08-03T03:10:12.085Z,0.29
2022-08-03T03:11:14.137Z,0.25
2022-08-03T03:12:16.657Z,0.06
2022-08-03T03:13:19.060Z,0.35
2022-08-03T03:14:33.554Z,0.31
2022-08-03T03:15:23.082Z,0.35
2022-08-03T03:16:25.176Z,0.21
2022-08-03T03:17:27.103Z,0.12
2022-08-03T03:18:29.083Z,0.11
2022-08-03T03:19:31.090Z,0.12
2022-08-03T03:20:33.101Z,0.28
2022-08-03T03:21:35.177Z,0.18
2022-08-03T03:22:37.091Z,0.21
2022-08-03T03:23:39.114Z,0.21
2022-08-03T03:24:41.102Z,0
2022-08-03T03:25:45.902Z,0.24
2022-08-03T03:26:47.174Z,0.16
2022-08-03T03:27:49.558Z,0.38
2022-08-03T03:28:51.115Z,0.33
2022-08-03T03:29:53.112Z,0.23
2022-08-03T03:30:55.105Z,0.38
2022-08-03T03:31:57.147Z,0.31
2022-08-03T03:32:59.103Z,0.42
2022-08-03T03:34:01.245Z,0.54
2022-08-03T03:35:03.141Z,0.36
2022-08-03T03:36:05.136Z,0.31
2022-08-03T03:37:07.160Z,0.38
2022-08-03T03:38:09.130Z,0.13
2022-08-03T03:39:15.302Z,0.26
2022-08-03T03:40:13.142Z,0.45
2022-08-03T03:41:15.130Z,0.22
2022-08-03T03:42:17.482Z,0.37
2022-08-03T03:43:19.143Z,0.46
2022-08-03T03:44:21.247Z,0.36
2022-08-03T03:45:23.173Z,0.52
2022-08-03T03:46:25.135Z,0.37
2022-08-03T03:47:32.114Z,0.31
2022-08-03T03:48:29.165Z,0.24
2022-08-03T03:49:31.212Z,0.33
2022-08-03T03:50:33.135Z,0.17
2022-08-03T03:51:35.161Z,0.3
2022-08-03T03:52:37.197Z,0.38
2022-08-03T03:53:39.149Z,0.27
2022-08-03T03:54:41.142Z,0.24
2022-08-03T03:55:57.968Z,0.19
2022-08-03T03:56:45.156Z,0.35
2022-08-03T03:57:47.182Z,0.39
2022-08-03T03:58:49.170Z,0.33
2022-08-03T03:59:51.151Z,0.25
2022-08-03T04:00:53.225Z,0.37
2022-08-03T04:01:59.065Z,0.24
2022-08-03T04:02:57.201Z,0.26
2022-08-03T04:03:59.149Z,0.41
2022-08-03T04:05:01.168Z,0.21
2022-08-03T04:06:03.203Z,0.41
2022-08-03T04:07:05.181Z,0.31
2022-08-03T04:08:07.220Z,0.39
2022-08-03T04:09:09.188Z,0.37
2022-08-03T04:10:14.674Z,0.36
2022-08-03T04:11:13.361Z,0.35
2022-08-03T04:12:15.351Z,0.24
2022-08-03T04:13:17.266Z,0.31
2022-08-03T04:14:19.182Z,0.27
2022-08-03T04:15:21.197Z,0.46
2022-08-03T04:16:23.186Z,0.27
2022-08-03T04:17:25.203Z,0.14
2022-08-03T04:18:27.267Z,0.27
2022-08-03T04:19:29.225Z,0.45
2022-08-03T04:20:31.201Z,0.27
2022-08-03T04:21:33.180Z,0.18
2022-08-03T04:22:35.196Z,0.32
2022-08-03T04:23:37.218Z,0.23
2022-08-03T04:24:39.187Z,0.26
2022-08-03T04:25:41.193Z,0.25
2022-08-03T04:26:43.201Z,0.32
2022-08-03T04:27:45.334Z,0.29
2022-08-03T04:28:47.238Z,0.26
2022-08-03T04:29:49.228Z,0.35
2022-08-03T04:30:51.214Z,0.31
2022-08-03T04:31:53.245Z,0.41
2022-08-03T04:32:55.225Z,0.36
2022-08-03T04:33:57.223Z,0.43
2022-08-03T04:34:59.211Z,0.47
2022-08-03T04:36:03.330Z,0.3
2022-08-03T04:37:03.257Z,0.72
2022-08-03T04:38:05.243Z,0.6
2022-08-03T04:39:07.283Z,0.3
2022-08-03T04:40:09.284Z,0.23
2022-08-03T04:41:11.236Z,0.64
2022-08-03T04:42:13.228Z,0.39
2022-08-03T04:43:15.243Z,0.38
2022-08-03T04:44:17.249Z,0.35
2022-08-03T04:45:19.260Z,0.52
2022-08-03T04:46:21.285Z,0.52
2022-08-03T04:47:23.237Z,0.14
2022-08-03T04:48:25.227Z,0.43
2022-08-03T04:49:27.363Z,0.65
2022-08-03T04:50:29.285Z,0.4
2022-08-03T04:51:31.231Z,0.75
2022-08-03T04:52:33.252Z,0.4
2022-08-03T04:53:35.247Z,0.44
2022-08-03T04:54:37.281Z,0.47
2022-08-03T04:55:39.288Z,0.29
2022-08-03T04:56:41.249Z,0.42
2022-08-03T04:57:43.254Z,0.26
2022-08-03T04:58:45.247Z,0.35
2022-08-03T04:59:47.275Z,0.44
2022-08-03T05:00:49.275Z,0.91
2022-08-03T05:01:51.321Z,0.22
2022-08-03T05:02:53.266Z,0.17
2022-08-03T05:03:55.263Z,0.45
2022-08-03T05:04:57.325Z,0.27
2022-08-03T05:06:02.042Z,0.27
2022-08-03T05:07:11.795Z,0.44
2022-08-03T05:08:03.448Z,0.19
2022-08-03T05:09:05.281Z,0.13
2022-08-03T05:10:10.182Z,0.38
2022-08-03T05:11:09.316Z,0
2022-08-03T05:12:11.275Z,0
2022-08-03T05:13:13.259Z,0
2022-08-03T05:14:15.450Z,0.34
2022-08-03T05:15:17.333Z,0.47
2022-08-03T05:16:19.348Z,0.21
2022-08-03T05:17:21.334Z,0.24
2022-08-03T05:18:23.290Z,1.04
2022-08-03T05:19:25.303Z,0.61
2022-08-03T05:20:27.313Z,0.49
2022-08-03T05:21:41.807Z,0.72
2022-08-03T05:22:31.295Z,0.53
2022-08-03T05:23:33.291Z,0.75
2022-08-03T05:24:35.302Z,1.23
2022-08-03T05:25:37.317Z,0.72
2022-08-03T05:26:39.376Z,0.76
2022-08-03T05:27:41.283Z,0.54
2022-08-03T05:28:48.223Z,0.5
2022-08-03T05:29:45.305Z,0.65
2022-08-03T05:30:47.324Z,0.75
2022-08-03T05:31:49.337Z,0.65
2022-08-03T05:32:51.310Z,0.64
2022-08-03T05:33:53.313Z,0.75
2022-08-03T05:34:55.344Z,0.74
2022-08-03T05:36:02.940Z,0.49
2022-08-03T05:36:59.335Z,0.54
2022-08-03T05:38:01.362Z,0.84
2022-08-03T05:39:03.386Z,0.64
2022-08-03T05:40:05.482Z,0.74
2022-08-03T05:41:20.087Z,0.66
2022-08-03T05:42:09.385Z,0.65
2022-08-03T05:43:11.336Z,0.38
2022-08-03T05:44:13.375Z,0.59
2022-08-03T05:45:15.347Z,0.12
2022-08-03T05:46:17.670Z,0.59
2022-08-03T05:47:19.339Z,0.72
2022-08-03T05:48:21.361Z,0.64
2022-08-03T05:49:23.419Z,1.1
2022-08-03T05:50:25.400Z,0.8
2022-08-03T05:51:27.321Z,1.21
2022-08-03T05:52:29.359Z,0.67
2022-08-03T05:53:31.376Z,0.54
2022-08-03T05:54:55.711Z,0.98
2022-08-03T05:55:35.357Z,0.34
2022-08-03T05:56:37.345Z,0.75
2022-08-03T05:57:39.360Z,0.6
2022-08-03T05:58:41.361Z,0.68
2022-08-03T05:59:53.749Z,0.32
2022-08-03T06:00:45.379Z,1.05
2022-08-03T06:01:47.430Z,0.67
2022-08-03T06:02:49.490Z,0.79
2022-08-03T06:03:51.362Z,0.71
2022-08-03T06:04:53.374Z,0.28
2022-08-03T06:05:59.892Z,0.38
2022-08-03T06:06:57.380Z,0.45
2022-08-03T06:07:59.352Z,0.36
2022-08-03T06:09:01.370Z,0.39
2022-08-03T06:10:34.820Z,0.45
2022-08-03T06:11:05.372Z,0.32
2022-08-03T06:12:10.080Z,0.67
2022-08-03T06:13:09.365Z,0.59
2022-08-03T06:14:11.384Z,0.35
2022-08-03T06:15:13.406Z,0.52
2022-08-03T06:16:15.391Z,0.74
2022-08-03T06:17:17.396Z,0.55
2022-08-03T06:18:19.399Z,0.59
2022-08-03T06:19:21.394Z,0.86
2022-08-03T06:20:26.642Z,1.03
2022-08-03T06:21:25.420Z,0.55
2022-08-03T06:22:27.403Z,0.64
2022-08-03T06:23:53.660Z,0.84
2022-08-03T06:24:31.416Z,0.87
2022-08-03T06:25:33.400Z,1.42
2022-08-03T06:26:35.392Z,0.63
2022-08-03T06:27:37.761Z,1.21
2022-08-03T06:28:52.106Z,0.63
2022-08-03T06:29:41.414Z,0.96
2022-08-03T06:30:43.414Z,0.86
2022-08-03T06:31:45.406Z,1.06
2022-08-03T06:32:51.540Z,1.17
2022-08-03T06:34:31.999Z,0.96
2022-08-03T06:34:51.423Z,0.43
2022-08-03T06:35:53.410Z,0.6
2022-08-03T06:36:58.720Z,0.63
2022-08-03T06:37:57.416Z,0.33
2022-08-03T06:38:59.489Z,0.67
2022-08-03T06:40:01.433Z,0.47
2022-08-03T06:41:03.442Z,0.92
2022-08-03T06:42:05.432Z,0.69
2022-08-03T06:43:09.534Z,0.48
2022-08-03T06:44:10.388Z,1.32
2022-08-03T06:45:11.428Z,0.68
2022-08-03T06:46:13.473Z,1.45
2022-08-03T06:47:15.464Z,0.97
2022-08-03T06:48:17.442Z,1.01
2022-08-03T06:49:19.656Z,0.91
2022-08-03T06:50:25.795Z,0.86
2022-08-03T06:51:23.436Z,1.11
2022-08-03T06:52:37.363Z,1.06
2022-08-03T06:53:27.437Z,1.15
2022-08-03T06:54:32.816Z,1.13
2022-08-03T06:55:31.497Z,0.53
2022-08-03T06:56:33.759Z,0.43
2022-08-03T06:57:35.449Z,1.14
2022-08-03T06:58:37.448Z,0.36
2022-08-03T07:00:06.856Z,1.1
2022-08-03T07:00:41.534Z,1.62
2022-08-03T07:01:43.563Z,1.06
2022-08-03T07:02:46.393Z,0.52
2022-08-03T07:03:52.081Z,1
2022-08-03T07:04:50.468Z,0.27
2022-08-03T07:05:51.908Z,0.38
2022-08-03T07:06:52.845Z,0.17
2022-08-03T07:07:54.514Z,0.81
2022-08-03T07:08:59.356Z,1.13
2022-08-03T07:09:58.550Z,0.72
2022-08-03T07:11:00.527Z,0.84
2022-08-03T07:12:02.517Z,1.13
2022-08-03T07:13:04.497Z,0.62
2022-08-03T07:14:06.514Z,1.66
2022-08-03T07:15:09.629Z,1.17
2022-08-03T07:16:11.520Z,0.79
2022-08-03T07:17:13.480Z,0.9
2022-08-03T07:18:15.515Z,0.87
2022-08-03T07:19:17.511Z,1.72
2022-08-03T07:20:19.626Z,1.25
2022-08-03T07:21:21.496Z,1.17
2022-08-03T07:22:23.518Z,0.89
2022-08-03T07:23:25.623Z,0.97
2022-08-03T07:24:27.576Z,1.09
2022-08-03T07:25:29.559Z,1.16
2022-08-03T07:26:31.513Z,0.74
2022-08-03T07:27:33.509Z,0.82
2022-08-03T07:28:35.552Z,1.26
2022-08-03T07:29:37.501Z,1.02
2022-08-03T07:30:39.559Z,0.93
2022-08-03T07:31:41.509Z,1.12
2022-08-03T07:32:49.914Z,1.21
2022-08-03T07:33:45.591Z,1.49
2022-08-03T07:34:47.526Z,1.58
2022-08-03T07:35:49.525Z,2.39
2022-08-03T07:36:51.526Z,2.29
2022-08-03T07:37:54.360Z,0.88
2022-08-03T07:38:55.585Z,0.94
2022-08-03T07:39:57.529Z,0.42
2022-08-03T07:40:59.558Z,1
2022-08-03T07:42:01.537Z,1.05
2022-08-03T07:43:02.952Z,0.56
2022-08-03T07:44:04.562Z,1.33
2022-08-03T07:45:06.636Z,0.82
2022-08-03T07:46:08.571Z,1.73
2022-08-03T07:47:10.585Z,2.61
2022-08-03T07:48:12.848Z,2.04
2022-08-03T07:49:14.722Z,1.47
2022-08-03T07:50:16.587Z,1.38
2022-08-03T07:51:18.590Z,1.03
2022-08-03T07:52:20.552Z,1.74
2022-08-03T07:53:22.559Z,1.57
2022-08-03T07:54:24.594Z,1.14
2022-08-03T07:55:26.569Z,1.18
2022-08-03T07:56:28.612Z,1.57
2022-08-03T07:57:30.566Z,1.12
2022-08-03T07:58:32.589Z,2.02
2022-08-03T07:59:49.020Z,1.39
2022-08-03T08:00:35.995Z,0.69
2022-08-03T08:01:37.160Z,0.89
2022-08-03T08:02:38.577Z,1.75
2022-08-03T08:03:49.825Z,1.67
2022-08-03T08:04:42.583Z,1.73
2022-08-03T08:05:44.600Z,1.84
2022-08-03T08:06:46.602Z,1.45
2022-08-03T08:07:50.701Z,1.39
2022-08-03T08:08:50.577Z,1.79
2022-08-03T08:09:51.982Z,0.8
2022-08-03T08:10:58.022Z,0.86
2022-08-03T08:11:54.656Z,1.37
2022-08-03T08:12:56.021Z,1.73
2022-08-03T08:13:57.749Z,1.26
2022-08-03T08:14:59.630Z,2.37
2022-08-03T08:16:01.599Z,1
2022-08-03T08:17:07.211Z,1.97
2022-08-03T08:18:05.650Z,1.34
2022-08-03T08:19:07.005Z,1.13
2022-08-03T08:20:08.649Z,1.62
2022-08-03T08:21:10.622Z,2.54
2022-08-03T08:22:12.007Z,2.08
2022-08-03T08:23:25.497Z,1.75
2022-08-03T08:24:18.073Z,2.9
2022-08-03T08:25:17.649Z,1.61
2022-08-03T08:26:19.647Z,2.15
2022-08-03T08:27:21.620Z,1.96
2022-08-03T08:28:30.027Z,1.72
2022-08-03T08:29:26.072Z,2.14
2022-08-03T08:30:27.027Z,1.67
2022-08-03T08:31:28.011Z,1.42
2022-08-03T08:32:29.654Z,2.16
2022-08-03T08:34:34.183Z,1.79
2022-08-03T08:35:35.675Z,1.73
2022-08-03T08:36:37.214Z,2.39
2022-08-03T08:37:38.630Z,1.84
2022-08-03T08:38:40.212Z,1.82
2022-08-03T08:39:42.069Z,1.9
2022-08-03T08:40:44.218Z,2.35
2022-08-03T08:41:45.849Z,1.52
2022-08-03T08:42:57.809Z,1.7
2022-08-03T08:43:47.656Z,1.9
2022-08-03T08:44:49.267Z,2.32
2022-08-03T08:45:50.179Z,1.69
2022-08-03T08:46:51.818Z,2.33
2022-08-03T08:47:56.901Z,2.27
2022-08-03T08:48:55.328Z,1.67
2022-08-03T08:50:09.106Z,1.9
2022-08-03T08:50:58.725Z,2.35
2022-08-03T08:52:01.581Z,2.61
2022-08-03T08:53:02.864Z,1.95
2022-08-03T08:54:04.746Z,1.96
2022-08-03T08:55:06.937Z,1.91
2022-08-03T08:56:08.035Z,1.66
2022-08-03T08:57:21.227Z,1.23
2022-08-03T08:58:10.087Z,2.12
2022-08-03T08:59:11.701Z,3.06
2022-08-03T09:00:13.238Z,2.33
2022-08-03T09:01:14.134Z,2.31
2022-08-03T09:02:15.331Z,2.2
2022-08-03T09:03:22.765Z,2.18
2022-08-03T09:04:17.102Z,1.39
2022-08-03T09:05:18.171Z,0.19
2022-08-03T09:06:19.081Z,0.88
2022-08-03T09:07:20.774Z,1.15
2022-08-03T09:08:21.106Z,2.03
2022-08-03T09:09:28.404Z,2.37
2022-08-03T09:10:23.134Z,2.62
2022-08-03T09:11:52.636Z,2.37
2022-08-03T09:12:42.123Z,1.93
2022-08-03T09:13:26.077Z,1.01
2022-08-03T09:14:37.179Z,1.73
2022-08-03T09:15:28.248Z,1.93
2022-08-03T09:16:29.082Z,1.8
2022-08-03T09:17:30.077Z,2.38
2022-08-03T09:18:32.246Z,1.01
2022-08-03T09:19:32.121Z,1.83
2022-08-03T09:20:33.224Z,2.42
2022-08-03T09:21:35.071Z,2.46
2022-08-03T09:22:36.097Z,1.97
2022-08-03T09:23:59.371Z,1.7
2022-08-03T09:24:41.377Z,1.6
2022-08-03T09:25:39.138Z,1.22
2022-08-03T09:26:40.118Z,1.33
2022-08-03T09:27:41.119Z,1.37
2022-08-03T09:29:00.362Z,2.21
2022-08-03T09:29:43.117Z,1.94
2022-08-03T09:30:44.183Z,1.57
2022-08-03T09:31:45.649Z,1.7
2022-08-03T09:32:46.128Z,2.33
2022-08-03T09:33:47.160Z,1.3
2022-08-03T09:34:48.159Z,1.81
2022-08-03T09:35:53.857Z,2.35
2022-08-03T09:36:50.184Z,1.02
2022-08-03T09:38:08.513Z,1.14
2022-08-03T09:38:52.144Z,1.14
2022-08-03T09:39:53.159Z,0.77
2022-08-03T09:40:58.973Z,0.96
2022-08-03T09:41:55.209Z,1.13
2022-08-03T09:42:56.176Z,1.51
2022-08-03T09:43:57.164Z,1.26
2022-08-03T09:44:58.152Z,1.58
2022-08-03T09:45:59.209Z,2.49
2022-08-03T09:47:00.253Z,1.31
2022-08-03T09:48:01.168Z,1.73
2022-08-03T09:49:02.352Z,1.86
2022-08-03T09:50:03.320Z,1.44
2022-08-03T09:51:12.666Z,1.83
2022-08-03T09:52:25.918Z,1.08
2022-08-03T09:53:06.193Z,0.84
2022-08-03T09:54:12.719Z,1.75
2022-08-03T09:55:08.780Z,1.22
2022-08-03T09:56:33.139Z,2.67
2022-08-03T09:57:10.206Z,1.5
2022-08-03T09:58:11.206Z,1.62
2022-08-03T09:59:12.152Z,1.2
2022-08-03T10:00:13.424Z,1.14
2022-08-03T10:01:14.234Z,1.88
2022-08-03T10:02:15.218Z,2.87
2022-08-03T10:03:16.232Z,1.28
2022-08-03T10:04:17.178Z,1.05
2022-08-03T10:05:19.812Z,0.93
2022-08-03T10:06:19.197Z,1.6
2022-08-03T10:07:20.315Z,1.47
2022-08-03T10:08:21.210Z,0.51
2022-08-03T10:09:22.270Z,1.37
2022-08-03T10:10:29.159Z,1.01
2022-08-03T10:11:24.235Z,1.47
2022-08-03T10:12:25.197Z,1.3
2022-08-03T10:13:26.264Z,0.83
2022-08-03T10:14:27.223Z,2.25
2022-08-03T10:16:20.960Z,1.35
2022-08-03T10:16:29.216Z,0.96
2022-08-03T10:17:30.229Z,1.07
2022-08-03T10:18:31.247Z,1.61
2022-08-03T10:19:32.239Z,2.03
2022-08-03T10:20:33.416Z,1.84
2022-08-03T10:21:34.365Z,1.03
2022-08-03T10:22:35.248Z,1.3
2022-08-03T10:23:36.244Z,1.36
2022-08-03T10:24:37.446Z,0.52
2022-08-03T10:25:38.284Z,0.79
2022-08-03T10:26:39.277Z,1.16
2022-08-03T10:27:40.245Z,1.04
2022-08-03T10:28:51.173Z,0.87
2022-08-03T10:29:52.319Z,1.43
2022-08-03T10:30:53.272Z,0.63
2022-08-03T10:31:54.408Z,0.69
2022-08-03T10:32:55.289Z,1.04
2022-08-03T10:33:56.270Z,1.24
2022-08-03T10:35:00.096Z,1.31
2022-08-03T10:35:58.267Z,1.07
2022-08-03T10:36:59.252Z,0.93
2022-08-03T10:38:00.249Z,0.34
2022-08-03T10:39:01.273Z,1.08
2022-08-03T10:40:02.651Z,0.43
2022-08-03T10:41:03.307Z,0.41
2022-08-03T10:42:04.382Z,1.31
2022-08-03T10:43:05.250Z,1.97
2022-08-03T10:44:06.343Z,1.77
2022-08-03T10:45:07.471Z,1.74
2022-08-03T10:46:08.252Z,1.77
2022-08-03T10:47:09.274Z,2.63
2022-08-03T10:48:10.302Z,2.59
2022-08-03T10:49:11.396Z,0.95
2022-08-03T10:50:12.273Z,1.42
2022-08-03T10:51:13.278Z,1.5
2022-08-03T10:52:19.677Z,1.68
2022-08-03T10:53:16.656Z,0.83
2022-08-03T10:54:16.370Z,1.08
2022-08-03T10:55:17.303Z,1.12
2022-08-03T10:56:18.324Z,1.18
2022-08-03T10:57:19.275Z,0.92
2022-08-03T10:58:25.177Z,0.47
2022-08-03T10:59:27.614Z,0.36
2022-08-03T11:00:22.404Z,0.27
2022-08-03T11:01:23.305Z,0.82
2022-08-03T11:02:24.288Z,1.55
2022-08-03T11:03:25.440Z,0.63
2022-08-03T11:04:26.338Z,1.44
2022-08-03T11:05:27.342Z,1.67
2022-08-03T11:06:28.316Z,1.98
2022-08-03T11:07:29.329Z,1.37
2022-08-03T11:08:30.290Z,0.78
2022-08-03T11:09:31.460Z,1.89
2022-08-03T11:10:32.386Z,1.47
2022-08-03T11:11:33.328Z,1.59
2022-08-03T11:12:34.326Z,0.99
2022-08-03T11:13:35.321Z,1.61
2022-08-03T11:14:36.315Z,2.35
2022-08-03T11:15:37.503Z,1.49
2022-08-03T11:16:38.317Z,1.97
2022-08-03T11:17:45.996Z,1.41
2022-08-03T11:18:40.332Z,1.26
2022-08-03T11:19:56.605Z,0.89
2022-08-03T11:20:42.390Z,0.91
2022-08-03T11:21:43.395Z,1.1
2022-08-03T11:22:44.372Z,0.79
2022-08-03T11:24:03.864Z,1.79
2022-08-03T11:24:46.306Z,1.75
2022-08-03T11:25:54.477Z,0.77
2022-08-03T11:26:48.402Z,1.01
2022-08-03T11:27:49.385Z,0.94
2022-08-03T11:28:50.328Z,0.28
2022-08-03T11:29:51.357Z,0.81
2022-08-03T11:30:52.366Z,1.23
2022-08-03T11:31:53.545Z,1.09
2022-08-03T11:32:54.348Z,0.73
2022-08-03T11:33:55.391Z,0.58
2022-08-03T11:34:56.398Z,0.34
2022-08-03T11:35:57.358Z,0.72
2022-08-03T11:36:58.400Z,1.62
2022-08-03T11:38:01.582Z,1.11
2022-08-03T11:39:00.348Z,0.88
2022-08-03T11:40:02.659Z,0.67
2022-08-03T11:41:02.410Z,0.78
2022-08-03T11:42:03.562Z,0.7
2022-08-03T11:43:04.373Z,0.96
2022-08-03T11:44:05.369Z,0.97
2022-08-03T11:45:06.583Z,0.5
2022-08-03T11:46:07.411Z,0.19
2022-08-03T11:47:08.423Z,0.64
2022-08-03T11:48:09.403Z,1.5
2022-08-03T11:49:11.286Z,1.32
2022-08-03T11:50:11.373Z,0.5
2022-08-03T11:51:12.396Z,0.62
2022-08-03T11:52:13.450Z,0.79
2022-08-03T11:53:14.399Z,1.08
2022-08-03T11:54:15.385Z,1.12
2022-08-03T11:55:16.394Z,0.48
2022-08-03T11:56:17.425Z,0.41
2022-08-03T11:57:18.641Z,0.81
2022-08-03T11:58:57.650Z,1.29
2022-08-03T11:59:21.966Z,1.47
2022-08-03T12:00:21.464Z,0.95
2022-08-03T12:01:23.189Z,0.23
2022-08-03T12:02:23.431Z,0.79
2022-08-03T12:03:24.476Z,1.36
2022-08-03T12:04:25.403Z,0.97
2022-08-03T12:05:26.413Z,1.14
2022-08-03T12:06:27.812Z,0.28
2022-08-03T12:08:02.767Z,0.34
2022-08-03T12:08:30.960Z,1.47
2022-08-03T12:09:32.413Z,1.41
2022-08-03T12:10:33.465Z,1.45
2022-08-03T12:11:34.486Z,1.22
2022-08-03T12:12:35.480Z,1.11
2022-08-03T12:13:57.315Z,0.6
2022-08-03T12:14:46.494Z,0.43
2022-08-03T12:15:38.450Z,0.46
2022-08-03T12:16:39.425Z,1.03
2022-08-03T12:17:40.476Z,0.53
2022-08-03T12:18:41.487Z,0.74
2022-08-03T12:19:42.434Z,0.45
2022-08-03T12:20:43.427Z,0.32
2022-08-03T12:21:44.469Z,0.33
2022-08-03T12:22:45.463Z,0.64
2022-08-03T12:23:46.483Z,0.2
2022-08-03T12:24:47.947Z,0.55
2022-08-03T12:25:49.498Z,0.96
2022-08-03T12:26:54.548Z,1.64
2022-08-03T12:27:50.465Z,1.36
2022-08-03T12:35:27.547Z,0.99
2022-08-03T12:36:28.523Z,0.54
2022-08-03T12:37:29.846Z,1.57
2022-08-03T12:38:30.510Z,1.77
2022-08-03T12:39:31.601Z,0.65
2022-08-03T12:40:32.494Z,0.81
2022-08-03T12:41:34.002Z,2.07
2022-08-03T12:42:34.887Z,1.64
2022-08-03T12:43:36.732Z,0.94
2022-08-03T12:44:36.491Z,1.07
2022-08-03T12:45:37.526Z,1.82
2022-08-03T12:46:39.412Z,1.06
2022-08-03T12:47:39.493Z,0.57
2022-08-03T12:48:40.501Z,0.65
2022-08-03T12:49:41.515Z,0.24
2022-08-03T12:50:42.534Z,0.32
2022-08-03T12:51:43.500Z,0.78
2022-08-03T12:52:44.544Z,1.28
2022-08-03T12:53:45.497Z,1.58
2022-08-03T12:54:46.509Z,0.57
2022-08-03T12:55:57.482Z,0.36
2022-08-03T12:56:48.553Z,0.18
2022-08-03T12:57:49.554Z,0.39
2022-08-03T12:58:50.529Z,0.63
2022-08-03T12:59:52.925Z,1.83
2022-08-03T13:00:52.593Z,0.86
2022-08-03T13:01:55.032Z,0.18
2022-08-03T13:03:17.625Z,0.42
2022-08-03T13:03:55.549Z,0.37
2022-08-03T13:04:56.533Z,0.53
2022-08-03T13:05:57.571Z,0.69
2022-08-03T13:07:02.431Z,1.45
2022-08-03T13:07:59.540Z,0.75
2022-08-03T13:09:00.547Z,2.51
2022-08-03T13:10:04.986Z,1.79
2022-08-03T13:11:02.607Z,1.11
2022-08-03T13:12:03.578Z,0.93
2022-08-03T13:13:04.556Z,1.39
2022-08-03T13:14:05.574Z,1.33
2022-08-03T13:15:06.738Z,1.18
2022-08-03T13:16:07.570Z,1.2
2022-08-03T13:17:08.755Z,1.58
2022-08-03T13:18:09.581Z,0.85
2022-08-03T13:19:15.362Z,1.1
2022-08-03T13:20:11.768Z,1.07
2022-08-03T13:21:12.641Z,0.94
2022-08-03T13:22:13.604Z,0.84
2022-08-03T13:23:16.196Z,0.75
2022-08-03T13:24:15.576Z,0.48
2022-08-03T13:25:16.597Z,0.46
2022-08-03T13:26:17.554Z,0.34
2022-08-03T13:28:02.768Z,0.54
2022-08-03T13:28:19.976Z,1.13
2022-08-03T13:29:20.616Z,1.33
2022-08-03T13:30:24.189Z,0.73
2022-08-03T13:31:22.613Z,0.19
2022-08-03T13:32:23.655Z,0.26
2022-08-03T13:33:24.777Z,0.13
2022-08-03T13:34:25.631Z,0.52
2022-08-03T13:35:26.611Z,1.67
2022-08-03T13:36:27.614Z,1.7
2022-08-03T13:37:28.609Z,1.48
2022-08-03T13:38:29.743Z,0.95
2022-08-03T13:39:32.403Z,0.51
2022-08-03T13:40:34.472Z,0.32
2022-08-03T13:41:32.672Z,0.19
2022-08-03T13:42:33.615Z,0.17
2022-08-03T13:43:34.659Z,0.26
2022-08-03T13:44:35.611Z,0.48
2022-08-03T13:45:36.664Z,0.79
2022-08-03T13:46:37.621Z,1
2022-08-03T13:47:38.643Z,0.65
2022-08-03T13:48:39.611Z,0.26
2022-08-03T13:49:40.632Z,0.75
2022-08-03T13:50:43.137Z,0.67
2022-08-03T13:51:42.685Z,0.26
2022-08-03T13:52:43.658Z,0.32
2022-08-03T13:53:44.633Z,0.49
2022-08-03T13:54:46.220Z,0.94
2022-08-03T13:55:46.643Z,1.38
2022-08-03T13:56:47.683Z,1.2
2022-08-03T13:58:05.580Z,0.9
2022-08-03T13:58:49.616Z,0.97
2022-08-03T13:59:50.634Z,1.25
2022-08-03T14:00:51.934Z,1.21
2022-08-03T14:01:55.586Z,1.07
2022-08-03T14:02:57.320Z,0.45
2022-08-03T14:03:56.362Z,0.54
2022-08-03T14:04:57.844Z,0.73
2022-08-03T14:05:58.984Z,0.89